Time;durP1;ratioP1;P1;durP2;ratioP2;P2;SDS_P1;SDS_P2;PMS_P1;PMS_P2;Temp;Humidity;BMP_temperature;BMP_pressure;BME280_temperature;BME280_humidity;BME280_pressure;Samples;Min_cycle;Max_cycle;Signal;HPM_P1;HPM_P2
2020/12/22 00:00:05;;;;;;;9.80;9.40;;;13.20;99.90;;;;;;5115658;27;20838;-74
2020/12/22 00:02:32;;;;;;;10.23;9.80;;;13.20;99.90;;;;;;5109639;27;20846;-77
2020/12/22 00:04:59;;;;;;;10.17;9.77;;;13.30;99.90;;;;;;5113678;27;20978;-76
2020/12/22 00:07:25;;;;;;;10.00;9.60;;;13.30;99.90;;;;;;5115297;27;20461;-75
2020/12/22 00:09:51;;;;;;;10.07;9.67;;;13.40;99.90;;;;;;5120812;27;20967;-76
2020/12/22 00:12:18;;;;;;;10.93;10.43;;;13.40;99.90;;;;;;5118586;27;20560;-76
2020/12/22 00:14:45;;;;;;;11.03;10.57;;;13.40;99.90;;;;;;5114820;27;20464;-76
2020/12/22 00:17:14;;;;;;;11.00;10.40;;;13.40;99.90;;;;;;5116392;27;20491;-75
2020/12/22 00:19:40;;;;;;;10.60;10.20;;;13.40;99.90;;;;;;5111789;27;20555;-76
2020/12/22 00:22:06;;;;;;;10.63;10.23;;;13.50;99.90;;;;;;5110686;27;20471;-76
2020/12/22 00:24:33;;;;;;;10.37;9.97;;;13.50;99.90;;;;;;5114765;27;20548;-76
2020/12/22 00:27:01;;;;;;;10.40;10.00;;;13.50;99.90;;;;;;5119494;27;20457;-76
2020/12/22 00:29:29;;;;;;;10.37;9.97;;;13.50;99.90;;;;;;5113972;27;20483;-76
2020/12/22 00:32:00;;;;;;;10.43;10.03;;;13.50;99.90;;;;;;5120503;27;20860;-76
2020/12/22 00:34:27;;;;;;;11.00;10.50;;;13.50;99.90;;;;;;5111125;27;20519;-77
2020/12/22 00:36:53;;;;;;;10.67;10.27;;;13.60;99.90;;;;;;5119380;27;20555;-76
2020/12/22 00:39:21;;;;;;;10.30;9.90;;;13.60;99.90;;;;;;5116479;27;20464;-76
2020/12/22 00:41:51;;;;;;;10.57;10.17;;;13.60;99.90;;;;;;5117961;27;20470;-76
2020/12/22 00:44:18;;;;;;;10.80;10.40;;;13.60;99.90;;;;;;5115083;27;20931;-76
2020/12/22 00:46:45;;;;;;;10.70;10.20;;;13.70;99.90;;;;;;5119845;27;20467;-76
2020/12/22 00:49:12;;;;;;;10.90;10.40;;;13.70;99.90;;;;;;5118303;27;20895;-76
2020/12/22 00:51:40;;;;;;;11.00;10.50;;;13.70;99.90;;;;;;5115288;27;20472;-76
2020/12/22 00:54:07;;;;;;;10.90;10.50;;;13.80;99.90;;;;;;5116341;27;20499;-76
2020/12/22 00:56:34;;;;;;;11.00;10.50;;;13.80;99.90;;;;;;5119480;27;20471;-76
2020/12/22 00:59:00;;;;;;;10.53;10.03;;;13.90;99.90;;;;;;5113964;27;20473;-75
2020/12/22 01:01:30;;;;;;;10.13;9.73;;;13.90;99.90;;;;;;5114944;28;20480;-75
2020/12/22 01:03:57;;;;;;;10.30;9.80;;;13.80;99.90;;;;;;5116015;28;20483;-75
2020/12/22 01:06:24;;;;;;;10.47;10.07;;;13.90;99.90;;;;;;5111948;28;20805;-76
2020/12/22 01:08:50;;;;;;;10.50;10.10;;;13.90;99.90;;;;;;5113315;28;20465;-76
2020/12/22 01:11:17;;;;;;;10.27;9.87;;;13.90;99.90;;;;;;5114787;28;20472;-76
2020/12/22 01:13:44;;;;;;;10.37;9.97;;;13.90;99.90;;;;;;5112349;28;20465;-75
2020/12/22 01:16:11;;;;;;;10.10;9.70;;;13.90;99.90;;;;;;5119153;28;20488;-76
2020/12/22 01:18:38;;;;;;;10.10;9.70;;;13.90;99.90;;;;;;5114212;28;20460;-75
2020/12/22 01:21:08;;;;;;;9.87;9.47;;;13.70;99.90;;;;;;5116262;28;20513;-75
2020/12/22 01:23:35;;;;;;;10.10;9.60;;;13.70;99.90;;;;;;5114692;28;20821;-75
2020/12/22 01:26:02;;;;;;;9.73;9.23;;;13.70;99.90;;;;;;5112461;28;20580;-75
2020/12/22 01:28:30;;;;;;;10.23;9.73;;;13.70;99.90;;;;;;5114486;28;20483;-76
2020/12/22 01:30:57;;;;;;;9.97;9.47;;;13.80;99.90;;;;;;5116501;28;20460;-77
2020/12/22 01:33:23;;;;;;;10.37;9.63;;;13.70;99.90;;;;;;5114916;28;20492;-75
2020/12/22 01:35:49;;;;;;;10.30;9.80;;;13.70;99.90;;;;;;5117663;28;20456;-75
2020/12/22 01:38:17;;;;;;;10.00;9.60;;;13.70;99.90;;;;;;5114734;28;20449;-77
2020/12/22 01:40:49;;;;;;;10.00;9.50;;;13.70;99.90;;;;;;5123462;28;20720;-76
2020/12/22 01:43:16;;;;;;;9.87;9.47;;;13.70;99.90;;;;;;5117534;28;20471;-76
2020/12/22 01:45:42;;;;;;;10.07;9.57;;;13.70;99.90;;;;;;5115838;28;20461;-76
2020/12/22 01:48:10;;;;;;;10.73;10.13;;;13.70;99.90;;;;;;5112445;28;20453;-76
2020/12/22 01:50:37;;;;;;;9.80;9.40;;;13.70;99.90;;;;;;5112664;28;20460;-78
2020/12/22 01:53:03;;;;;;;10.73;9.93;;;13.70;99.90;;;;;;5118023;28;20916;-77
2020/12/22 01:55:32;;;;;;;10.37;9.80;;;13.70;99.90;;;;;;5118484;28;20459;-76
2020/12/22 01:57:59;;;;;;;11.50;11.00;;;13.60;99.90;;;;;;5110493;28;20493;-76
2020/12/22 02:00:25;;;;;;;11.17;10.67;;;13.60;99.90;;;;;;5092722;27;572064;-76
2020/12/22 02:02:53;;;;;;;12.03;11.07;;;13.40;99.90;;;;;;5114301;27;20593;-76
2020/12/22 02:05:20;;;;;;;10.80;10.30;;;13.40;99.90;;;;;;5115723;27;20490;-76
2020/12/22 02:07:47;;;;;;;11.10;10.60;;;13.40;99.90;;;;;;5122912;27;20452;-77
2020/12/22 02:10:13;;;;;;;11.83;11.33;;;13.40;99.90;;;;;;5119605;27;20464;-77
2020/12/22 02:12:42;;;;;;;11.37;10.87;;;13.50;99.90;;;;;;5114361;27;20863;-78
2020/12/22 02:15:10;;;;;;;11.60;11.07;;;13.40;99.90;;;;;;5114619;28;20453;-78
2020/12/22 02:17:36;;;;;;;11.50;11.00;;;13.50;99.90;;;;;;5114843;27;20468;-78
2020/12/22 02:20:05;;;;;;;11.30;10.60;;;13.50;99.90;;;;;;5109338;28;20538;-79
2020/12/22 02:22:34;;;;;;;12.47;11.67;;;13.40;99.90;;;;;;5114440;27;20495;-77
2020/12/22 02:25:01;;;;;;;11.43;10.83;;;13.50;99.90;;;;;;5114156;27;20457;-77
2020/12/22 02:27:27;;;;;;;11.77;11.07;;;13.40;99.90;;;;;;5115184;28;20831;-78
2020/12/22 02:29:55;;;;;;;11.40;10.70;;;13.50;99.90;;;;;;5116056;28;20557;-78
2020/12/22 02:32:21;;;;;;;11.70;11.00;;;13.40;99.90;;;;;;5117798;28;20512;-77
2020/12/22 02:34:48;;;;;;;11.03;10.43;;;13.40;99.90;;;;;;5118620;28;20475;-78
2020/12/22 02:37:21;;;;;;;11.37;10.63;;;13.40;99.90;;;;;;5114855;28;20488;-78
2020/12/22 02:39:49;;;;;;;11.67;10.77;;;13.40;99.90;;;;;;5112914;27;20467;-78
2020/12/22 02:42:16;;;;;;;11.50;11.00;;;13.40;99.90;;;;;;5114915;27;20457;-77
2020/12/22 02:44:42;;;;;;;12.43;11.57;;;13.30;99.90;;;;;;5122481;27;20460;-78
2020/12/22 02:47:14;;;;;;;11.73;11.23;;;13.30;99.90;;;;;;5116736;27;20465;-77
2020/12/22 02:49:42;;;;;;;12.00;11.30;;;13.30;99.90;;;;;;5118783;27;20539;-77
2020/12/22 02:52:08;;;;;;;11.57;10.97;;;13.20;99.90;;;;;;5117833;27;20484;-77
2020/12/22 02:54:35;;;;;;;11.83;11.10;;;13.20;99.90;;;;;;5113170;27;20494;-78
2020/12/22 02:57:03;;;;;;;10.73;10.27;;;13.30;99.90;;;;;;5115083;27;20877;-77
2020/12/22 02:59:29;;;;;;;11.20;10.70;;;13.30;99.90;;;;;;5120351;27;20543;-78
2020/12/22 03:01:55;;;;;;;12.17;11.27;;;13.30;99.90;;;;;;5113768;27;20461;-77
2020/12/22 03:04:22;;;;;;;11.13;10.63;;;13.40;99.90;;;;;;5113798;27;20490;-78
2020/12/22 03:06:48;;;;;;;11.40;10.90;;;13.30;99.90;;;;;;5121230;27;20867;-77
2020/12/22 03:09:16;;;;;;;11.57;10.87;;;13.40;99.90;;;;;;5117195;27;20464;-77
2020/12/22 03:11:42;;;;;;;11.00;10.20;;;13.60;99.90;;;;;;5116541;27;20485;-78
2020/12/22 03:14:10;;;;;;;10.47;10.07;;;13.60;99.90;;;;;;5119522;27;20457;-78
2020/12/22 03:16:37;;;;;;;10.33;9.77;;;13.60;99.90;;;;;;5115496;27;20488;-77
2020/12/22 03:19:04;;;;;;;10.07;9.37;;;13.60;99.90;;;;;;5118567;27;20468;-78
2020/12/22 03:21:30;;;;;;;9.23;8.83;;;13.70;99.90;;;;;;5117155;27;20461;-77
2020/12/22 03:23:57;;;;;;;10.00;9.50;;;13.80;99.90;;;;;;5121032;27;20466;-77
2020/12/22 03:26:23;;;;;;;10.23;9.83;;;13.80;99.90;;;;;;5117002;27;20877;-77
2020/12/22 03:28:51;;;;;;;9.90;9.50;;;13.80;99.90;;;;;;5120814;27;20546;-77
2020/12/22 03:31:18;;;;;;;10.07;9.57;;;13.80;99.90;;;;;;5114043;27;20998;-77
2020/12/22 03:33:44;;;;;;;10.13;9.63;;;13.90;99.90;;;;;;5116778;27;20484;-77
2020/12/22 03:36:10;;;;;;;10.30;9.83;;;13.90;99.90;;;;;;5122220;27;20467;-77
2020/12/22 03:38:37;;;;;;;9.93;9.53;;;13.90;99.90;;;;;;5116771;27;20500;-77
2020/12/22 03:41:03;;;;;;;11.20;10.40;;;13.90;99.90;;;;;;5118348;27;20467;-78
2020/12/22 03:43:31;;;;;;;9.67;9.27;;;13.90;99.90;;;;;;5118729;27;20457;-78
2020/12/22 03:45:58;;;;;;;9.83;9.33;;;13.90;99.90;;;;;;5115778;27;20464;-77
2020/12/22 03:48:26;;;;;;;9.70;9.27;;;13.80;99.90;;;;;;5116456;27;20460;-77
2020/12/22 03:50:53;;;;;;;10.27;9.43;;;13.80;99.90;;;;;;5114890;27;20518;-77
2020/12/22 03:53:20;;;;;;;10.70;10.30;;;13.90;99.90;;;;;;5118473;27;20480;-77
2020/12/22 03:55:47;;;;;;;11.40;10.90;;;13.80;99.90;;;;;;5118442;27;20464;-78
2020/12/22 03:58:14;;;;;;;11.73;11.23;;;13.80;99.90;;;;;;5117209;27;20923;-77
2020/12/22 04:00:40;;;;;;;11.20;10.57;;;13.70;99.90;;;;;;5120273;27;20968;-76
2020/12/22 04:03:06;;;;;;;11.23;10.70;;;13.60;99.90;;;;;;5123124;27;20517;-76
2020/12/22 04:05:34;;;;;;;12.60;11.97;;;13.60;99.90;;;;;;5115206;27;21290;-76
2020/12/22 04:08:01;;;;;;;13.67;13.07;;;13.60;99.90;;;;;;5115283;27;20492;-76
2020/12/22 04:10:29;;;;;;;13.47;12.87;;;13.50;99.90;;;;;;5116462;27;20461;-76
2020/12/22 04:12:56;;;;;;;23.93;15.00;;;13.50;99.90;;;;;;5119259;27;21039;-76
2020/12/22 04:15:22;;;;;;;16.07;15.17;;;13.40;99.90;;;;;;5122781;27;20844;-76
2020/12/22 04:17:50;;;;;;;15.73;15.00;;;13.40;99.90;;;;;;5119683;27;20458;-77
2020/12/22 04:20:16;;;;;;;16.60;15.80;;;13.40;99.90;;;;;;5115768;27;20487;-78
2020/12/22 04:22:43;;;;;;;16.97;15.80;;;13.40;99.90;;;;;;5116749;27;20471;-76
2020/12/22 04:25:10;;;;;;;15.83;14.80;;;13.30;99.90;;;;;;5111686;27;20461;-78
2020/12/22 04:27:36;;;;;;;15.90;15.07;;;13.30;99.90;;;;;;5119049;27;20517;-77
2020/12/22 04:30:03;;;;;;;15.50;14.80;;;13.30;99.90;;;;;;5117473;27;20472;-76
2020/12/22 04:32:30;;;;;;;15.40;14.40;;;13.30;99.90;;;;;;5118353;27;20497;-76
2020/12/22 04:34:57;;;;;;;15.43;14.47;;;13.30;99.90;;;;;;5121165;27;20877;-76
2020/12/22 04:37:24;;;;;;;14.57;13.87;;;13.30;99.90;;;;;;5118635;27;20465;-76
2020/12/22 04:39:51;;;;;;;13.27;12.47;;;13.40;99.90;;;;;;5122420;27;20471;-76
2020/12/22 04:42:21;;;;;;;13.67;12.97;;;13.40;99.90;;;;;;5118942;27;20488;-76
2020/12/22 04:44:48;;;;;;;13.03;12.40;;;13.50;99.90;;;;;;5114618;27;20468;-77
2020/12/22 04:47:16;;;;;;;13.60;12.97;;;13.60;99.90;;;;;;5122285;27;20809;-77
2020/12/22 04:49:46;;;;;;;13.60;13.00;;;13.60;99.90;;;;;;5118491;27;21074;-78
2020/12/22 04:52:14;;;;;;;14.10;13.40;;;13.60;99.90;;;;;;5111784;27;20500;-78
2020/12/22 04:54:41;;;;;;;14.00;13.40;;;13.50;99.90;;;;;;5113815;27;20457;-78
2020/12/22 04:57:08;;;;;;;13.53;12.93;;;13.60;99.90;;;;;;5116203;27;20453;-77
2020/12/22 04:59:37;;;;;;;13.90;13.10;;;13.60;99.90;;;;;;5116379;27;20488;-77
2020/12/22 05:02:03;;;;;;;13.80;13.10;;;13.50;99.90;;;;;;5113899;27;20468;-77
2020/12/22 05:04:34;;;;;;;14.00;13.40;;;13.60;99.90;;;;;;5104904;27;20480;-77
2020/12/22 05:07:02;;;;;;;13.80;13.00;;;13.60;99.90;;;;;;5111816;27;20464;-78
2020/12/22 05:09:28;;;;;;;14.03;13.13;;;13.60;99.90;;;;;;5114824;27;20517;-78
2020/12/22 05:11:55;;;;;;;13.50;12.90;;;13.60;99.90;;;;;;5111092;27;20495;-78
2020/12/22 05:14:22;;;;;;;12.70;12.10;;;13.60;99.90;;;;;;5117327;27;21296;-78
2020/12/22 05:16:48;;;;;;;12.50;12.00;;;13.60;99.90;;;;;;5120962;27;20816;-79
2020/12/22 05:19:19;;;;;;;11.90;11.40;;;13.60;99.90;;;;;;5117365;27;20841;-79
2020/12/22 05:21:46;;;;;;;11.90;11.37;;;13.70;99.90;;;;;;5113496;27;20674;-78
2020/12/22 05:24:14;;;;;;;13.20;12.60;;;13.70;99.90;;;;;;5113884;27;20463;-78
2020/12/22 05:26:41;;;;;;;13.33;12.63;;;13.60;99.90;;;;;;5116173;27;20496;-77
2020/12/22 05:29:09;;;;;;;12.90;12.30;;;13.60;99.90;;;;;;5111500;27;20464;-78
2020/12/22 05:31:43;;;;;;;12.97;12.37;;;13.60;99.90;;;;;;5114828;27;20458;-78
2020/12/22 05:34:11;;;;;;;12.37;11.87;;;13.60;99.90;;;;;;5113727;27;20483;-78
2020/12/22 05:36:39;;;;;;;12.27;11.63;;;13.60;99.90;;;;;;5117951;27;20621;-78
2020/12/22 05:39:08;;;;;;;11.70;11.10;;;13.70;99.90;;;;;;5111370;27;20465;-78
2020/12/22 05:41:34;;;;;;;12.17;11.47;;;13.60;99.90;;;;;;5111836;27;20868;-79
2020/12/22 05:44:01;;;;;;;11.93;11.33;;;13.60;99.90;;;;;;5114835;27;20810;-76
2020/12/22 05:46:33;;;;;;;12.97;12.37;;;13.70;99.90;;;;;;5119332;27;20464;-77
2020/12/22 05:49:04;;;;;;;12.97;12.37;;;13.70;99.90;;;;;;5115411;27;20461;-77
2020/12/22 05:51:32;;;;;;;13.10;12.50;;;13.60;99.90;;;;;;5111693;27;20510;-78
2020/12/22 05:54:04;;;;;;;13.57;12.97;;;13.60;99.90;;;;;;5117718;27;20468;-76
2020/12/22 05:56:31;;;;;;;13.57;12.77;;;13.60;99.90;;;;;;5112805;27;20460;-76
2020/12/22 05:58:57;;;;;;;13.37;12.70;;;13.60;99.90;;;;;;5115629;27;20461;-76
2020/12/22 06:01:31;;;;;;;13.30;12.70;;;13.60;99.90;;;;;;5115305;27;20496;-77
2020/12/22 06:04:00;;;;;;;13.70;13.00;;;13.70;99.90;;;;;;5116187;27;20486;-77
2020/12/22 06:06:27;;;;;;;13.80;13.10;;;13.60;99.90;;;;;;5114451;27;20492;-77
2020/12/22 06:08:55;;;;;;;16.03;15.23;;;13.60;99.90;;;;;;5115523;27;20466;-78
2020/12/22 06:11:21;;;;;;;16.17;15.33;;;13.60;99.90;;;;;;5118282;27;20461;-76
2020/12/22 06:13:48;;;;;;;15.80;15.00;;;13.60;99.90;;;;;;5112045;27;20526;-79
2020/12/22 06:16:17;;;;;;;15.63;14.93;;;13.60;99.90;;;;;;5116189;27;21167;-78
2020/12/22 06:18:47;;;;;;;15.27;14.57;;;13.50;99.90;;;;;;5115120;27;20460;-77
2020/12/22 06:21:16;;;;;;;15.20;14.43;;;13.50;99.90;;;;;;5116596;27;20568;-77
2020/12/22 06:23:43;;;;;;;17.67;16.80;;;13.50;99.90;;;;;;5118341;27;20470;-76
2020/12/22 06:26:11;;;;;;;17.60;16.57;;;13.50;99.90;;;;;;5110758;28;20517;-78
2020/12/22 06:28:38;;;;;;;17.43;16.17;;;13.40;99.90;;;;;;5115697;28;20541;-77
2020/12/22 06:31:16;;;;;;;17.57;16.70;;;13.40;99.90;;;;;;5113630;28;20465;-77
2020/12/22 06:33:43;;;;;;;17.20;16.40;;;13.40;99.90;;;;;;5112199;28;20492;-78
2020/12/22 06:36:13;;;;;;;17.10;16.20;;;13.40;99.90;;;;;;5117711;28;20503;-76
2020/12/22 06:38:48;;;;;;;16.70;15.90;;;13.30;99.90;;;;;;5117519;28;20493;-76
2020/12/22 06:41:51;;;;;;;17.77;16.77;;;13.30;99.90;;;;;;5116777;28;20460;-75
2020/12/22 06:44:26;;;;;;;16.47;15.70;;;13.30;99.90;;;;;;5116125;28;20452;-76
2020/12/22 06:46:53;;;;;;;16.60;15.70;;;13.30;99.90;;;;;;5117757;28;21024;-77
2020/12/22 06:49:35;;;;;;;15.50;14.80;;;13.30;99.90;;;;;;5112777;28;20452;-76
2020/12/22 06:52:02;;;;;;;15.70;15.00;;;13.30;99.90;;;;;;5113738;28;20562;-77
2020/12/22 06:54:35;;;;;;;16.47;15.30;;;13.30;99.90;;;;;;5117183;28;20464;-76
2020/12/22 06:57:02;;;;;;;15.53;14.83;;;13.30;99.90;;;;;;5112316;28;20960;-76
2020/12/22 06:59:50;;;;;;;16.60;15.50;;;13.30;99.90;;;;;;5116834;28;20489;-76
2020/12/22 07:02:32;;;;;;;15.37;14.57;;;13.40;99.90;;;;;;5113333;28;20512;-76
2020/12/22 07:05:00;;;;;;;15.67;14.67;;;13.40;99.90;;;;;;5115122;28;20457;-77
2020/12/22 07:07:54;;;;;;;15.33;14.53;;;13.40;99.90;;;;;;5113418;28;20470;-77
2020/12/22 07:10:21;;;;;;;14.70;13.90;;;13.40;99.90;;;;;;5117268;28;20451;-77
2020/12/22 07:12:49;;;;;;;14.90;14.17;;;13.50;99.90;;;;;;5113329;28;20484;-77
2020/12/22 07:15:18;;;;;;;14.80;14.00;;;13.50;99.90;;;;;;5114077;28;20455;-77
2020/12/22 07:17:45;;;;;;;14.60;13.70;;;13.50;99.90;;;;;;5111588;28;20472;-77
2020/12/22 07:20:12;;;;;;;16.33;15.03;;;13.60;99.90;;;;;;5116259;28;20458;-77
2020/12/22 07:22:38;;;;;;;15.07;14.00;;;13.60;99.90;;;;;;5115957;28;20500;-77
2020/12/22 07:25:05;;;;;;;15.90;15.00;;;13.60;99.90;;;;;;5117019;28;20951;-77
2020/12/22 07:27:33;;;;;;;16.90;15.30;;;13.60;99.90;;;;;;5117864;27;20459;-77
2020/12/22 07:30:00;;;;;;;16.00;15.10;;;13.50;99.90;;;;;;5116103;27;20464;-77
2020/12/22 07:32:26;;;;;;;15.00;14.20;;;13.50;99.90;;;;;;5121452;27;20532;-77
2020/12/22 07:34:53;;;;;;;15.30;14.50;;;13.50;99.90;;;;;;5117195;27;20550;-77
2020/12/22 07:37:20;;;;;;;15.83;14.90;;;13.50;99.90;;;;;;5124412;27;20467;-77
2020/12/22 07:39:46;;;;;;;15.60;14.50;;;13.50;99.90;;;;;;5115788;27;20512;-76
2020/12/22 07:42:14;;;;;;;16.03;15.17;;;13.50;99.90;;;;;;5116703;27;20487;-76
2020/12/22 07:44:42;;;;;;;16.73;15.83;;;13.50;99.90;;;;;;5107962;27;20986;-77
2020/12/22 07:47:10;;;;;;;16.27;15.37;;;13.50;99.90;;;;;;5113096;27;20682;-78
2020/12/22 07:49:37;;;;;;;16.63;15.63;;;13.50;99.90;;;;;;5114059;27;20460;-76
2020/12/22 07:52:03;;;;;;;16.37;15.47;;;13.50;99.90;;;;;;5114253;27;20465;-77
2020/12/22 07:54:30;;;;;;;16.37;15.30;;;13.50;99.90;;;;;;5115474;27;20476;-77
2020/12/22 07:56:59;;;;;;;17.13;16.13;;;13.40;99.90;;;;;;5115682;27;20472;-77
2020/12/22 07:59:28;;;;;;;16.40;15.40;;;13.40;99.90;;;;;;5114114;27;20484;-77
2020/12/22 08:01:55;;;;;;;16.50;15.60;;;13.40;99.90;;;;;;5119026;27;20558;-78
2020/12/22 08:04:23;;;;;;;16.17;15.37;;;13.40;99.90;;;;;;5117373;27;20456;-78
2020/12/22 08:06:57;;;;;;;17.00;15.80;;;13.50;99.90;;;;;;5121853;27;20484;-77
2020/12/22 08:09:25;;;;;;;16.30;15.40;;;13.40;99.90;;;;;;5117938;27;20970;-78
2020/12/22 08:11:53;;;;;;;16.83;15.83;;;13.40;99.90;;;;;;5118272;27;20470;-77
2020/12/22 08:14:22;;;;;;;16.03;15.00;;;13.30;99.90;;;;;;5116772;27;20461;-78
2020/12/22 08:16:51;;;;;;;15.67;14.87;;;13.30;99.90;;;;;;5122393;27;21043;-77
2020/12/22 08:19:19;;;;;;;14.60;13.90;;;13.40;99.90;;;;;;5115710;27;20545;-76
2020/12/22 08:21:47;;;;;;;15.80;14.80;;;13.40;99.90;;;;;;5116887;27;20456;-75
2020/12/22 08:24:17;;;;;;;20.13;18.67;;;13.40;99.90;;;;;;5110658;27;20465;-76
2020/12/22 08:26:45;;;;;;;19.50;18.40;;;13.30;99.90;;;;;;5114934;27;20453;-76
2020/12/22 08:29:14;;;;;;;19.77;18.67;;;13.10;99.90;;;;;;5121840;27;20488;-76
2020/12/22 08:31:42;;;;;;;20.00;18.70;;;13.00;99.90;;;;;;5118108;27;20461;-75
2020/12/22 08:34:11;;;;;;;19.33;18.20;;;13.00;99.90;;;;;;5117918;27;20493;-76
2020/12/22 08:36:38;;;;;;;18.70;17.70;;;13.00;99.90;;;;;;5113829;27;20559;-76
2020/12/22 08:39:20;;;;;;;19.73;18.33;;;13.00;99.90;;;;;;5113143;27;20457;-76
2020/12/22 08:41:48;;;;;;;18.90;17.80;;;12.90;99.90;;;;;;5117554;27;20460;-76
2020/12/22 08:44:14;;;;;;;18.90;17.70;;;13.00;99.90;;;;;;5111946;27;21055;-76
2020/12/22 08:46:42;;;;;;;17.87;16.90;;;13.00;99.90;;;;;;5116655;27;20513;-76
2020/12/22 08:49:10;;;;;;;17.60;16.70;;;13.00;99.90;;;;;;5112386;27;20455;-76
2020/12/22 08:51:38;;;;;;;17.23;16.10;;;13.00;99.90;;;;;;5119518;27;20464;-77
2020/12/22 08:54:05;;;;;;;16.80;15.80;;;13.10;99.90;;;;;;5114553;27;20484;-77
2020/12/22 08:56:32;;;;;;;16.93;15.83;;;13.00;99.90;;;;;;5115041;27;20465;-77
2020/12/22 08:59:00;;;;;;;17.10;16.00;;;13.10;99.90;;;;;;5112337;27;20479;-77
2020/12/22 09:01:30;;;;;;;16.30;15.40;;;13.10;99.90;;;;;;5116705;27;20514;-77
2020/12/22 09:03:59;;;;;;;15.67;14.87;;;13.20;99.90;;;;;;5115371;27;20549;-77
2020/12/22 09:06:34;;;;;;;16.73;15.70;;;13.20;99.90;;;;;;5116214;27;20534;-77
2020/12/22 09:09:03;;;;;;;16.80;15.40;;;13.20;99.90;;;;;;5114012;27;20476;-77
2020/12/22 09:11:30;;;;;;;16.10;15.20;;;13.30;99.90;;;;;;5119797;27;20483;-77
2020/12/22 09:14:02;;;;;;;15.60;14.80;;;13.30;99.90;;;;;;5111687;27;20492;-77
2020/12/22 09:16:53;;;;;;;15.80;15.00;;;13.30;99.90;;;;;;5117697;27;20487;-77
2020/12/22 09:19:21;;;;;;;15.67;14.87;;;13.40;99.90;;;;;;5114322;27;20457;-77
2020/12/22 09:21:56;;;;;;;14.80;14.10;;;13.50;99.90;;;;;;5111897;27;21184;-77
2020/12/22 09:24:24;;;;;;;14.77;13.90;;;13.50;99.90;;;;;;5115034;27;20471;-77
2020/12/22 09:26:58;;;;;;;15.70;14.80;;;13.60;99.90;;;;;;5116413;27;20506;-77
2020/12/22 09:29:25;;;;;;;15.83;14.93;;;13.70;99.90;;;;;;5114819;27;21014;-77
2020/12/22 09:31:53;;;;;;;15.70;14.80;;;13.70;99.90;;;;;;5114431;27;20518;-77
2020/12/22 09:34:20;;;;;;;14.90;14.20;;;13.70;99.90;;;;;;5115490;27;20487;-77
2020/12/22 09:36:54;;;;;;;14.73;13.97;;;13.70;99.90;;;;;;5113742;27;20457;-77
2020/12/22 09:39:22;;;;;;;14.77;13.97;;;13.70;99.90;;;;;;5112696;27;20453;-77
2020/12/22 09:41:50;;;;;;;14.23;13.43;;;13.70;99.90;;;;;;5113825;27;20465;-77
2020/12/22 09:44:16;;;;;;;15.87;15.07;;;13.70;99.90;;;;;;5115724;27;20492;-77
2020/12/22 09:46:45;;;;;;;15.97;14.80;;;13.70;99.90;;;;;;5110632;27;20456;-78
2020/12/22 09:49:11;;;;;;;15.73;14.83;;;13.60;99.90;;;;;;5122779;27;20471;-77
2020/12/22 09:51:38;;;;;;;17.43;15.97;;;13.50;99.90;;;;;;5114542;27;20834;-77
2020/12/22 09:54:04;;;;;;;17.53;16.47;;;13.60;99.90;;;;;;5110353;27;20481;-77
2020/12/22 09:56:31;;;;;;;16.80;15.80;;;13.60;99.90;;;;;;5113293;27;20460;-77
2020/12/22 09:59:00;;;;;;;16.50;15.50;;;13.70;99.90;;;;;;5110333;27;20840;-77
2020/12/22 10:01:27;;;;;;;17.30;16.13;;;13.70;99.90;;;;;;5094160;28;20964;-77
2020/12/22 10:03:55;;;;;;;16.43;15.50;;;13.70;99.90;;;;;;5097216;28;20461;-77
2020/12/22 10:06:23;;;;;;;17.43;16.03;;;13.80;99.90;;;;;;5092381;28;20461;-77
2020/12/22 10:08:50;;;;;;;16.40;15.30;;;13.80;99.90;;;;;;5091603;28;20464;-77
2020/12/22 10:11:17;;;;;;;15.60;14.70;;;13.90;99.90;;;;;;5092586;28;20492;-78
2020/12/22 10:13:44;;;;;;;14.67;13.97;;;13.90;99.90;;;;;;5091056;28;20494;-78
2020/12/22 10:16:13;;;;;;;15.13;14.27;;;14.00;99.90;;;;;;5094622;28;20460;-78
2020/12/22 10:18:40;;;;;;;14.17;13.47;;;14.00;99.90;;;;;;5092247;28;20462;-77
2020/12/22 10:21:08;;;;;;;14.50;13.80;;;14.10;99.90;;;;;;5092325;28;20465;-77
2020/12/22 10:23:35;;;;;;;14.20;13.50;;;14.30;99.90;;;;;;5096738;28;20465;-77
2020/12/22 10:26:03;;;;;;;14.10;13.40;;;14.30;99.90;;;;;;5099598;28;20929;-77
2020/12/22 10:28:30;;;;;;;14.40;13.60;;;14.30;99.90;;;;;;5091168;28;20465;-77
2020/12/22 10:30:57;;;;;;;14.23;13.53;;;14.20;99.90;;;;;;5093401;28;20449;-77
2020/12/22 10:33:25;;;;;;;14.07;13.37;;;14.20;99.90;;;;;;5091491;28;20497;-78
2020/12/22 10:35:52;;;;;;;13.37;12.73;;;14.20;99.90;;;;;;5091923;28;21057;-78
2020/12/22 10:38:19;;;;;;;13.87;13.17;;;14.20;99.90;;;;;;5096523;28;20465;-78
2020/12/22 10:40:46;;;;;;;14.00;13.20;;;14.20;99.90;;;;;;5099521;28;20832;-78
2020/12/22 10:43:13;;;;;;;13.67;12.90;;;14.30;99.90;;;;;;5095897;28;20457;-78
2020/12/22 10:45:40;;;;;;;13.80;13.00;;;14.30;99.90;;;;;;5095538;28;20465;-79
2020/12/22 10:48:07;;;;;;;12.40;11.90;;;14.30;99.90;;;;;;5096847;28;20469;-78
2020/12/22 10:50:35;;;;;;;13.53;12.73;;;14.30;99.90;;;;;;5092117;28;20460;-78
2020/12/22 10:53:01;;;;;;;12.63;11.93;;;14.30;99.90;;;;;;5092890;28;20485;-77
2020/12/22 10:55:28;;;;;;;13.10;12.30;;;14.30;99.90;;;;;;5096880;28;20461;-77
2020/12/22 10:57:55;;;;;;;13.10;12.50;;;14.30;99.90;;;;;;5094171;28;20458;-78
2020/12/22 11:00:22;;;;;;;13.00;12.30;;;14.40;99.90;;;;;;5103557;28;20584;-77
2020/12/22 11:02:51;;;;;;;13.03;12.43;;;14.50;99.90;;;;;;5118957;27;20479;-77
2020/12/22 11:05:18;;;;;;;12.50;11.90;;;14.60;99.90;;;;;;5116447;27;20461;-77
2020/12/22 11:07:49;;;;;;;13.50;12.80;;;14.60;99.90;;;;;;5123468;27;20461;-78
2020/12/22 11:10:16;;;;;;;12.90;12.30;;;14.60;99.90;;;;;;5125446;27;20460;-78
2020/12/22 11:12:42;;;;;;;13.23;12.63;;;14.40;99.90;;;;;;5113760;27;20568;-77
2020/12/22 11:15:09;;;;;;;12.90;12.30;;;14.40;99.90;;;;;;5117302;27;20473;-77
2020/12/22 11:17:35;;;;;;;13.07;12.10;;;14.50;99.90;;;;;;5115343;27;20464;-77
2020/12/22 11:20:01;;;;;;;13.10;12.40;;;14.60;99.90;;;;;;5119147;27;20797;-77
2020/12/22 11:22:29;;;;;;;12.60;12.00;;;14.60;99.90;;;;;;5116310;27;20453;-77
2020/12/22 11:24:57;;;;;;;12.77;12.17;;;14.60;99.90;;;;;;5121092;27;20572;-77
2020/12/22 11:27:24;;;;;;;12.50;11.97;;;14.50;99.90;;;;;;5115108;27;20765;-77
2020/12/22 11:29:50;;;;;;;13.07;12.33;;;14.50;99.90;;;;;;5119158;27;20453;-77
2020/12/22 11:32:16;;;;;;;13.17;12.57;;;14.50;99.90;;;;;;5120645;27;20506;-77
2020/12/22 11:34:43;;;;;;;13.27;12.57;;;14.60;99.90;;;;;;5116477;27;20484;-77
2020/12/22 11:37:10;;;;;;;12.83;12.13;;;14.70;99.90;;;;;;5118566;27;20467;-77
2020/12/22 11:39:37;;;;;;;13.57;12.63;;;14.80;99.90;;;;;;5117917;27;20521;-77
2020/12/22 11:42:05;;;;;;;13.10;12.50;;;14.90;99.90;;;;;;5115244;27;20471;-77
2020/12/22 11:44:31;;;;;;;13.00;12.30;;;14.90;99.90;;;;;;5111849;27;20555;-77
2020/12/22 11:46:58;;;;;;;13.23;12.50;;;14.90;99.90;;;;;;5113590;27;20461;-77
2020/12/22 11:49:27;;;;;;;13.37;12.67;;;15.00;99.90;;;;;;5117225;27;20844;-77
2020/12/22 11:51:57;;;;;;;13.80;12.80;;;15.10;99.90;;;;;;5113144;27;20503;-77
2020/12/22 11:54:25;;;;;;;12.80;12.00;;;15.00;99.90;;;;;;5110677;27;20488;-75
2020/12/22 11:56:52;;;;;;;13.07;12.47;;;15.00;99.90;;;;;;5111601;27;20460;-75
2020/12/22 11:59:19;;;;;;;12.80;12.27;;;14.90;99.90;;;;;;5113134;27;20496;-76
2020/12/22 12:01:46;;;;;;;13.00;12.40;;;14.90;99.90;;;;;;5120007;27;20498;-75
2020/12/22 12:04:12;;;;;;;13.00;12.40;;;15.00;99.90;;;;;;5116434;27;20510;-77
2020/12/22 12:06:45;;;;;;;15.60;14.33;;;15.00;99.90;;;;;;5117643;27;20468;-78
2020/12/22 12:09:12;;;;;;;13.50;12.90;;;15.00;99.90;;;;;;5117007;27;20489;-77
2020/12/22 12:11:39;;;;;;;13.70;12.70;;;14.90;99.90;;;;;;5121223;27;21033;-77
2020/12/22 12:14:05;;;;;;;13.70;13.00;;;14.80;99.90;;;;;;5117624;27;20496;-77
2020/12/22 12:16:33;;;;;;;12.83;12.23;;;14.70;99.90;;;;;;5122738;27;20453;-78
2020/12/22 12:19:00;;;;;;;13.23;12.63;;;14.80;99.90;;;;;;5118205;27;21041;-75
2020/12/22 12:21:28;;;;;;;12.20;11.70;;;14.80;99.90;;;;;;5117912;27;20487;-76
2020/12/22 12:23:54;;;;;;;12.40;11.90;;;14.90;99.90;;;;;;5119249;27;20453;-75
2020/12/22 12:26:23;;;;;;;13.07;12.47;;;14.70;99.90;;;;;;5118685;27;20465;-75
2020/12/22 12:28:50;;;;;;;12.30;11.70;;;14.70;99.90;;;;;;5114708;27;20461;-76
2020/12/22 12:31:18;;;;;;;12.43;11.67;;;14.70;99.90;;;;;;5115937;27;20456;-76